sensor_id;sensor_type;location;lat;lon;timestamp;pressure;altitude;pressure_sealevel;temperature;humidity
11830;BME280;5972;42.134;24.718;2023-01-27T00:02:19;99036.72;;;3.04;100.00
11830;BME280;5972;42.134;24.718;2023-01-27T00:04:46;99035.31;;;3.07;100.00
11830;BME280;5972;42.134;24.718;2023-01-27T00:07:14;99051.03;;;3.08;100.00
11830;BME280;5972;42.134;24.718;2023-01-27T00:09:41;99033.50;;;2.93;100.00
11830;BME280;5972;42.134;24.718;2023-01-27T00:12:17;99058.88;;;3.05;100.00
11830;BME280;5972;42.134;24.718;2023-01-27T00:15:02;99060.34;;;3.11;100.00
11830;BME280;5972;42.134;24.718;2023-01-27T00:17:33;99051.09;;;3.17;100.00
11830;BME280;5972;42.134;24.718;2023-01-27T00:20:00;99044.75;;;3.04;100.00
11830;BME280;5972;42.134;24.718;2023-01-27T00:22:29;99045.69;;;3.08;100.00
11830;BME280;5972;42.134;24.718;2023-01-27T00:25:13;99030.16;;;3.10;100.00
11830;BME280;5972;42.134;24.718;2023-01-27T00:27:40;99032.03;;;3.10;100.00
11830;BME280;5972;42.134;24.718;2023-01-27T00:30:09;99022.28;;;3.05;100.00
11830;BME280;5972;42.134;24.718;2023-01-27T00:32:36;99004.50;;;3.09;100.00
11830;BME280;5972;42.134;24.718;2023-01-27T00:35:20;99011.97;;;3.21;100.00
11830;BME280;5972;42.134;24.718;2023-01-27T00:37:48;99011.47;;;3.19;100.00
11830;BME280;5972;42.134;24.718;2023-01-27T00:40:16;98998.88;;;3.11;100.00
11830;BME280;5972;42.134;24.718;2023-01-27T00:42:43;99021.91;;;3.29;100.00
11830;BME280;5972;42.134;24.718;2023-01-27T00:45:10;99010.53;;;3.15;100.00
11830;BME280;5972;42.134;24.718;2023-01-27T00:47:54;99021.59;;;3.30;100.00
11830;BME280;5972;42.134;24.718;2023-01-27T00:50:21;99008.53;;;3.29;100.00
11830;BME280;5972;42.134;24.718;2023-01-27T00:52:49;99009.97;;;3.35;100.00
11830;BME280;5972;42.134;24.718;2023-01-27T00:55:17;99006.03;;;3.32;100.00
11830;BME280;5972;42.134;24.718;2023-01-27T00:57:44;99009.66;;;3.28;100.00
11830;BME280;5972;42.134;24.718;2023-01-27T01:00:12;98999.81;;;3.15;100.00
11830;BME280;5972;42.134;24.718;2023-01-27T01:02:39;98988.84;;;3.16;100.00
11830;BME280;5972;42.134;24.718;2023-01-27T01:05:07;98986.03;;;3.21;100.00
11830;BME280;5972;42.134;24.718;2023-01-27T01:07:34;98962.44;;;3.23;100.00
11830;BME280;5972;42.134;24.718;2023-01-27T01:10:02;98953.66;;;3.23;100.00
11830;BME280;5972;42.134;24.718;2023-01-27T01:12:29;98954.69;;;3.13;100.00
11830;BME280;5972;42.134;24.718;2023-01-27T01:14:56;98937.69;;;3.09;100.00
11830;BME280;5972;42.134;24.718;2023-01-27T01:17:22;98900.47;;;2.82;100.00
11830;BME280;5972;42.134;24.718;2023-01-27T01:19:49;98956.19;;;2.97;100.00
11830;BME280;5972;42.134;24.718;2023-01-27T01:22:16;98984.97;;;3.00;100.00
11830;BME280;5972;42.134;24.718;2023-01-27T01:24:43;98988.09;;;2.93;100.00
11830;BME280;5972;42.134;24.718;2023-01-27T01:27:11;98993.16;;;3.04;100.00
11830;BME280;5972;42.134;24.718;2023-01-27T01:29:38;99015.03;;;3.06;100.00
11830;BME280;5972;42.134;24.718;2023-01-27T01:32:05;98984.13;;;2.91;100.00
11830;BME280;5972;42.134;24.718;2023-01-27T01:34:34;98938.44;;;2.70;100.00
11830;BME280;5972;42.134;24.718;2023-01-27T01:37:01;98957.09;;;2.84;100.00
11830;BME280;5972;42.134;24.718;2023-01-27T01:39:28;98977.50;;;3.11;100.00
11830;BME280;5972;42.134;24.718;2023-01-27T01:41:55;98971.16;;;3.07;100.00
11830;BME280;5972;42.134;24.718;2023-01-27T01:44:24;98957.13;;;3.01;100.00
11830;BME280;5972;42.134;24.718;2023-01-27T01:46:51;98977.22;;;3.21;100.00
11830;BME280;5972;42.134;24.718;2023-01-27T01:49:21;98968.91;;;3.22;100.00
11830;BME280;5972;42.134;24.718;2023-01-27T01:51:51;98957.09;;;3.23;100.00
11830;BME280;5972;42.134;24.718;2023-01-27T01:54:23;98955.41;;;3.36;100.00
11830;BME280;5972;42.134;24.718;2023-01-27T01:56:54;98923.91;;;3.16;100.00
11830;BME280;5972;42.134;24.718;2023-01-27T01:59:25;98954.66;;;3.44;100.00
11830;BME280;5972;42.134;24.718;2023-01-27T02:01:56;98940.16;;;3.37;100.00
11830;BME280;5972;42.134;24.718;2023-01-27T02:04:26;98947.09;;;3.38;100.00
11830;BME280;5972;42.134;24.718;2023-01-27T02:06:59;98946.28;;;3.37;100.00
11830;BME280;5972;42.134;24.718;2023-01-27T02:09:27;98924.03;;;3.11;100.00
11830;BME280;5972;42.134;24.718;2023-01-27T02:11:57;98939.94;;;3.24;100.00
11830;BME280;5972;42.134;24.718;2023-01-27T02:14:26;98935.75;;;3.32;100.00
11830;BME280;5972;42.134;24.718;2023-01-27T02:16:52;98930.25;;;3.37;100.00
11830;BME280;5972;42.134;24.718;2023-01-27T02:19:24;98901.28;;;3.30;100.00
11830;BME280;5972;42.134;24.718;2023-01-27T02:21:55;98882.84;;;3.12;100.00
11830;BME280;5972;42.134;24.718;2023-01-27T02:24:28;98886.94;;;3.18;100.00
11830;BME280;5972;42.134;24.718;2023-01-27T02:26:59;98890.75;;;3.25;100.00
11830;BME280;5972;42.134;24.718;2023-01-27T02:29:26;98890.63;;;3.39;100.00
11830;BME280;5972;42.134;24.718;2023-01-27T02:31:56;98858.81;;;3.29;100.00
11830;BME280;5972;42.134;24.718;2023-01-27T02:34:29;98886.72;;;3.45;100.00
11830;BME280;5972;42.134;24.718;2023-01-27T02:36:59;98890.63;;;3.48;100.00
11830;BME280;5972;42.134;24.718;2023-01-27T02:39:33;98898.50;;;3.53;100.00
11830;BME280;5972;42.134;24.718;2023-01-27T02:42:03;98907.00;;;3.55;100.00
11830;BME280;5972;42.134;24.718;2023-01-27T02:44:31;98889.53;;;3.49;100.00
11830;BME280;5972;42.134;24.718;2023-01-27T02:46:58;98882.59;;;3.48;100.00
11830;BME280;5972;42.134;24.718;2023-01-27T02:49:25;98887.81;;;3.53;100.00
11830;BME280;5972;42.134;24.718;2023-01-27T02:51:51;98881.66;;;3.52;100.00
11830;BME280;5972;42.134;24.718;2023-01-27T02:54:18;98884.78;;;3.28;100.00
11830;BME280;5972;42.134;24.718;2023-01-27T02:56:45;98894.56;;;3.42;100.00
11830;BME280;5972;42.134;24.718;2023-01-27T02:59:13;98884.31;;;3.35;100.00
11830;BME280;5972;42.134;24.718;2023-01-27T03:01:40;98883.50;;;3.34;100.00
11830;BME280;5972;42.134;24.718;2023-01-27T03:04:08;98861.19;;;3.30;100.00
11830;BME280;5972;42.134;24.718;2023-01-27T03:06:36;98873.00;;;3.38;100.00
11830;BME280;5972;42.134;24.718;2023-01-27T03:09:03;98873.94;;;3.42;100.00
11830;BME280;5972;42.134;24.718;2023-01-27T03:11:30;98861.19;;;3.30;100.00
11830;BME280;5972;42.134;24.718;2023-01-27T03:14:15;98864.69;;;3.40;100.00
11830;BME280;5972;42.134;24.718;2023-01-27T03:16:42;98848.00;;;3.34;100.00
11830;BME280;5972;42.134;24.718;2023-01-27T03:19:59;98840.72;;;3.34;100.00
11830;BME280;5972;42.134;24.718;2023-01-27T03:22:47;98845.94;;;3.22;100.00
11830;BME280;5972;42.134;24.718;2023-01-27T03:25:14;98876.63;;;3.33;100.00
11830;BME280;5972;42.134;24.718;2023-01-27T03:31:16;98895.50;;;3.37;100.00
11830;BME280;5972;42.134;24.718;2023-01-27T03:34:17;98892.81;;;3.37;100.00
11830;BME280;5972;42.134;24.718;2023-01-27T03:36:44;98892.81;;;3.37;100.00
11830;BME280;5972;42.134;24.718;2023-01-27T03:39:28;98867.34;;;3.40;100.00
11830;BME280;5972;42.134;24.718;2023-01-27T03:42:13;98874.09;;;3.46;100.00
11830;BME280;5972;42.134;24.718;2023-01-27T03:44:57;98874.09;;;3.37;100.00
11830;BME280;5972;42.134;24.718;2023-01-27T03:47:43;98881.50;;;3.57;100.00
11830;BME280;5972;42.134;24.718;2023-01-27T03:50:10;98863.28;;;3.51;100.00
11830;BME280;5972;42.134;24.718;2023-01-27T03:52:38;98880.28;;;3.55;100.00
11830;BME280;5972;42.134;24.718;2023-01-27T03:55:08;98873.19;;;3.59;100.00
11830;BME280;5972;42.134;24.718;2023-01-27T03:57:35;98876.66;;;3.51;100.00
11830;BME280;5972;42.134;24.718;2023-01-27T04:00:03;98867.19;;;3.53;100.00
11830;BME280;5972;42.134;24.718;2023-01-27T04:02:31;98879.97;;;3.65;100.00
11830;BME280;5972;42.134;24.718;2023-01-27T04:05:17;98882.34;;;3.66;100.00
11830;BME280;5972;42.134;24.718;2023-01-27T04:08:04;98866.44;;;3.70;100.00
11830;BME280;5972;42.134;24.718;2023-01-27T04:10:30;98853.53;;;3.72;100.00
11830;BME280;5972;42.134;24.718;2023-01-27T04:12:57;98820.31;;;3.47;100.00
11830;BME280;5972;42.134;24.718;2023-01-27T04:15:23;98851.47;;;3.69;100.00
11830;BME280;5972;42.134;24.718;2023-01-27T04:17:50;98847.69;;;3.70;100.00
11830;BME280;5972;42.134;24.718;2023-01-27T04:20:18;98851.63;;;3.55;100.00
11830;BME280;5972;42.134;24.718;2023-01-27T04:22:45;98845.81;;;3.62;100.00
11830;BME280;5972;42.134;24.718;2023-01-27T04:25:11;98853.69;;;3.67;100.00
11830;BME280;5972;42.134;24.718;2023-01-27T04:27:41;98848.19;;;3.72;100.00
11830;BME280;5972;42.134;24.718;2023-01-27T04:30:09;98837.94;;;3.65;100.00
11830;BME280;5972;42.134;24.718;2023-01-27T04:32:36;98824.56;;;3.48;100.00
11830;BME280;5972;42.134;24.718;2023-01-27T04:35:03;98833.69;;;3.47;100.00
11830;BME280;5972;42.134;24.718;2023-01-27T04:37:31;98832.28;;;3.58;100.00
11830;BME280;5972;42.134;24.718;2023-01-27T04:39:58;98832.75;;;3.60;100.00
11830;BME280;5972;42.134;24.718;2023-01-27T04:42:25;98821.59;;;3.50;100.00
11830;BME280;5972;42.134;24.718;2023-01-27T04:44:51;98832.75;;;3.60;100.00
11830;BME280;5972;42.134;24.718;2023-01-27T04:47:18;98845.97;;;3.65;100.00
11830;BME280;5972;42.134;24.718;2023-01-27T04:49:45;98841.41;;;3.66;100.00
11830;BME280;5972;42.134;24.718;2023-01-27T04:52:12;98844.25;;;3.69;100.00
11830;BME280;5972;42.134;24.718;2023-01-27T04:54:40;98842.03;;;3.71;100.00
11830;BME280;5972;42.134;24.718;2023-01-27T04:57:06;98839.38;;;3.71;100.00
11830;BME280;5972;42.134;24.718;2023-01-27T04:59:34;98836.84;;;3.75;100.00
11830;BME280;5972;42.134;24.718;2023-01-27T05:02:01;98837.31;;;3.77;100.00
11830;BME280;5972;42.134;24.718;2023-01-27T05:04:28;98841.72;;;3.82;100.00
11830;BME280;5972;42.134;24.718;2023-01-27T05:06:55;98834.34;;;3.79;100.00
11830;BME280;5972;42.134;24.718;2023-01-27T05:09:22;98847.06;;;3.82;100.00
11830;BME280;5972;42.134;24.718;2023-01-27T05:11:50;98855.09;;;3.82;100.00
11830;BME280;5972;42.134;24.718;2023-01-27T05:14:17;98856.81;;;3.86;100.00
11830;BME280;5972;42.134;24.718;2023-01-27T05:16:44;98848.97;;;3.72;100.00
11830;BME280;5972;42.134;24.718;2023-01-27T05:19:11;98862.97;;;3.69;100.00
11830;BME280;5972;42.134;24.718;2023-01-27T05:21:39;98878.56;;;3.76;100.00
11830;BME280;5972;42.134;24.718;2023-01-27T05:24:09;98883.25;;;3.79;100.00
11830;BME280;5972;42.134;24.718;2023-01-27T05:26:35;98876.03;;;3.80;100.00
11830;BME280;5972;42.134;24.718;2023-01-27T05:29:04;98857.31;;;3.71;100.00
11830;BME280;5972;42.134;24.718;2023-01-27T05:31:30;98869.91;;;3.88;100.00
11830;BME280;5972;42.134;24.718;2023-01-27T05:33:58;98852.59;;;3.76;100.00
11830;BME280;5972;42.134;24.718;2023-01-27T05:36:26;98860.13;;;3.74;100.00
11830;BME280;5972;42.134;24.718;2023-01-27T05:38:54;98871.94;;;3.82;100.00
11830;BME280;5972;42.134;24.718;2023-01-27T05:41:21;98862.66;;;3.71;100.00
11830;BME280;5972;42.134;24.718;2023-01-27T05:43:51;98853.53;;;3.55;100.00
11830;BME280;5972;42.134;24.718;2023-01-27T05:46:21;98878.41;;;3.72;100.00
11830;BME280;5972;42.134;24.718;2023-01-27T05:48:49;98880.28;;;3.72;100.00
11830;BME280;5972;42.134;24.718;2023-01-27T05:51:18;98882.19;;;3.71;100.00
11830;BME280;5972;42.134;24.718;2023-01-27T05:53:46;98877.44;;;3.60;100.00
11830;BME280;5972;42.134;24.718;2023-01-27T05:56:14;98882.34;;;3.66;100.00
11830;BME280;5972;42.134;24.718;2023-01-27T05:58:42;98862.50;;;3.67;100.00
11830;BME280;5972;42.134;24.718;2023-01-27T06:01:12;98838.91;;;3.61;100.00
11830;BME280;5972;42.134;24.718;2023-01-27T06:03:40;98873.03;;;3.81;100.00
11830;BME280;5972;42.134;24.718;2023-01-27T06:06:08;98858.41;;;3.79;100.00
11830;BME280;5972;42.134;24.718;2023-01-27T06:08:36;98868.81;;;3.89;100.00
11830;BME280;5972;42.134;24.718;2023-01-27T06:11:04;98851.16;;;3.88;100.00
11830;BME280;5972;42.134;24.718;2023-01-27T06:13:32;98852.28;;;3.95;100.00
11830;BME280;5972;42.134;24.718;2023-01-27T06:16:01;98848.78;;;4.03;100.00
11830;BME280;5972;42.134;24.718;2023-01-27T06:18:28;98843.13;;;4.05;100.00
11830;BME280;5972;42.134;24.718;2023-01-27T06:20:57;98852.41;;;4.07;100.00
11830;BME280;5972;42.134;24.718;2023-01-27T06:23:24;98857.94;;;4.11;100.00
11830;BME280;5972;42.134;24.718;2023-01-27T06:25:52;98839.03;;;3.99;100.00
11830;BME280;5972;42.134;24.718;2023-01-27T06:28:19;98857.94;;;4.11;100.00
11830;BME280;5972;42.134;24.718;2023-01-27T06:30:46;98881.03;;;4.24;100.00
11830;BME280;5972;42.134;24.718;2023-01-27T06:33:15;98885.78;;;4.27;100.00
11830;BME280;5972;42.134;24.718;2023-01-27T06:35:43;98877.09;;;4.30;100.00
11830;BME280;5972;42.134;24.718;2023-01-27T06:38:12;98877.72;;;4.36;100.00
11830;BME280;5972;42.134;24.718;2023-01-27T06:40:40;98868.72;;;4.40;100.00
11830;BME280;5972;42.134;24.718;2023-01-27T06:43:10;98878.81;;;4.43;100.00
11830;BME280;5972;42.134;24.718;2023-01-27T06:45:37;98872.81;;;4.46;100.00
11830;BME280;5972;42.134;24.718;2023-01-27T06:48:05;98880.84;;;4.55;100.00
11830;BME280;5972;42.134;24.718;2023-01-27T06:50:32;98872.50;;;4.56;100.00
11830;BME280;5972;42.134;24.718;2023-01-27T06:53:00;98864.94;;;4.50;100.00
11830;BME280;5972;42.134;24.718;2023-01-27T06:55:29;98855.16;;;4.54;100.00
11830;BME280;5972;42.134;24.718;2023-01-27T06:57:55;98865.81;;;4.71;100.00
11830;BME280;5972;42.134;24.718;2023-01-27T07:00:22;98853.84;;;4.69;100.00
11830;BME280;5972;42.134;24.718;2023-01-27T07:02:49;98864.22;;;4.79;100.00
11830;BME280;5972;42.134;24.718;2023-01-27T07:05:18;98867.03;;;4.82;100.00
11830;BME280;5972;42.134;24.718;2023-01-27T07:07:44;98860.72;;;4.87;100.00
11830;BME280;5972;42.134;24.718;2023-01-27T07:10:11;98862.00;;;4.81;100.00
11830;BME280;5972;42.134;24.718;2023-01-27T07:12:39;98860.56;;;4.83;100.00
11830;BME280;5972;42.134;24.718;2023-01-27T07:15:07;98863.38;;;4.87;100.00
11830;BME280;5972;42.134;24.718;2023-01-27T07:17:35;98872.16;;;4.96;100.00
11830;BME280;5972;42.134;24.718;2023-01-27T07:20:03;98871.22;;;5.00;100.00
11830;BME280;5972;42.134;24.718;2023-01-27T07:22:30;98871.22;;;5.00;100.00
11830;BME280;5972;42.134;24.718;2023-01-27T07:24:57;98872.63;;;5.07;100.00
11830;BME280;5972;42.134;24.718;2023-01-27T07:27:24;98849.50;;;4.85;100.00
11830;BME280;5972;42.134;24.718;2023-01-27T07:29:54;98860.53;;;4.92;100.00
11830;BME280;5972;42.134;24.718;2023-01-27T07:32:20;98859.56;;;4.96;100.00
11830;BME280;5972;42.134;24.718;2023-01-27T07:34:47;98872.94;;;5.05;100.00
11830;BME280;5972;42.134;24.718;2023-01-27T07:37:14;98882.78;;;5.22;100.00
11830;BME280;5972;42.134;24.718;2023-01-27T07:39:41;98872.38;;;5.20;100.00
11830;BME280;5972;42.134;24.718;2023-01-27T07:42:08;98867.50;;;5.22;100.00
11830;BME280;5972;42.134;24.718;2023-01-27T07:44:35;98869.06;;;5.23;100.00
11830;BME280;5972;42.134;24.718;2023-01-27T07:47:03;98879.22;;;5.38;100.00
11830;BME280;5972;42.134;24.718;2023-01-27T07:49:43;98780.00;;;4.88;100.00
11830;BME280;5972;42.134;24.718;2023-01-27T07:52:10;98863.75;;;5.35;100.00
11830;BME280;5972;42.134;24.718;2023-01-27T07:54:39;98857.84;;;5.51;100.00
11830;BME280;5972;42.134;24.718;2023-01-27T07:57:08;98821.31;;;5.17;100.00
11830;BME280;5972;42.134;24.718;2023-01-27T07:59:35;98869.78;;;5.62;100.00
11830;BME280;5972;42.134;24.718;2023-01-27T08:02:03;98868.13;;;5.69;100.00
11830;BME280;5972;42.134;24.718;2023-01-27T08:04:29;98873.97;;;5.71;100.00
11830;BME280;5972;42.134;24.718;2023-01-27T08:06:56;98872.06;;;5.72;100.00
11830;BME280;5972;42.134;24.718;2023-01-27T08:09:23;98875.97;;;5.74;100.00
11830;BME280;5972;42.134;24.718;2023-01-27T08:11:50;98843.56;;;5.38;100.00
11830;BME280;5972;42.134;24.718;2023-01-27T08:14:17;98876.84;;;5.66;100.00
11830;BME280;5972;42.134;24.718;2023-01-27T08:16:43;98848.22;;;5.50;100.00
11830;BME280;5972;42.134;24.718;2023-01-27T08:19:12;98870.28;;;5.55;100.00
11830;BME280;5972;42.134;24.718;2023-01-27T08:21:38;98865.00;;;5.67;100.00
11830;BME280;5972;42.134;24.718;2023-01-27T08:24:06;98855.84;;;5.68;100.00
11830;BME280;5972;42.134;24.718;2023-01-27T08:26:34;98853.59;;;5.70;100.00
11830;BME280;5972;42.134;24.718;2023-01-27T08:29:01;98846.44;;;5.74;100.00
11830;BME280;5972;42.134;24.718;2023-01-27T08:31:28;98827.81;;;5.78;100.00
11830;BME280;5972;42.134;24.718;2023-01-27T08:33:54;98815.59;;;5.68;100.00
11830;BME280;5972;42.134;24.718;2023-01-27T08:36:23;98826.59;;;5.96;100.00
11830;BME280;5972;42.134;24.718;2023-01-27T08:38:50;98821.44;;;6.03;100.00
11830;BME280;5972;42.134;24.718;2023-01-27T08:41:19;98824.66;;;6.17;100.00
11830;BME280;5972;42.134;24.718;2023-01-27T08:43:47;98823.38;;;6.15;100.00
11830;BME280;5972;42.134;24.718;2023-01-27T08:46:14;98827.13;;;6.22;100.00
11830;BME280;5972;42.134;24.718;2023-01-27T08:48:41;98831.50;;;6.27;100.00
11830;BME280;5972;42.134;24.718;2023-01-27T08:51:10;98831.38;;;6.23;100.00
11830;BME280;5972;42.134;24.718;2023-01-27T08:53:39;98839.75;;;6.22;100.00
11830;BME280;5972;42.134;24.718;2023-01-27T08:56:09;98811.69;;;5.99;100.00
11830;BME280;5972;42.134;24.718;2023-01-27T08:58:38;98843.66;;;6.12;100.00
11830;BME280;5972;42.134;24.718;2023-01-27T09:01:08;98830.75;;;6.06;100.00
11830;BME280;5972;42.134;24.718;2023-01-27T09:03:35;98842.28;;;6.06;100.00
11830;BME280;5972;42.134;24.718;2023-01-27T09:06:03;98821.53;;;5.95;100.00
11830;BME280;5972;42.134;24.718;2023-01-27T09:08:30;98822.06;;;5.88;100.00
11830;BME280;5972;42.134;24.718;2023-01-27T09:10:58;98835.44;;;6.09;100.00
11830;BME280;5972;42.134;24.718;2023-01-27T09:13:25;98837.81;;;6.10;100.00
11830;BME280;5972;42.134;24.718;2023-01-27T09:15:53;98833.56;;;6.09;100.00
11830;BME280;5972;42.134;24.718;2023-01-27T09:18:20;98840.19;;;6.12;100.00
11830;BME280;5972;42.134;24.718;2023-01-27T09:20:47;98836.38;;;6.13;100.00
11830;BME280;5972;42.134;24.718;2023-01-27T09:23:16;98803.97;;;5.97;100.00
11830;BME280;5972;42.134;24.718;2023-01-27T09:25:43;98823.53;;;6.18;100.00
11830;BME280;5972;42.134;24.718;2023-01-27T09:28:11;98802.44;;;6.08;100.00
11830;BME280;5972;42.134;24.718;2023-01-27T09:30:46;98824.34;;;6.31;100.00
11830;BME280;5972;42.134;24.718;2023-01-27T09:33:19;98811.47;;;6.37;100.00
11830;BME280;5972;42.134;24.718;2023-01-27T09:35:50;98795.59;;;6.44;100.00
11830;BME280;5972;42.134;24.718;2023-01-27T09:38:22;98799.41;;;6.43;100.00
11830;BME280;5972;42.134;24.718;2023-01-27T09:41:04;98790.91;;;6.41;100.00
11830;BME280;5972;42.134;24.718;2023-01-27T09:43:47;98785.41;;;6.49;100.00
11830;BME280;5972;42.134;24.718;2023-01-27T09:46:44;98779.56;;;6.47;100.00
11830;BME280;5972;42.134;24.718;2023-01-27T09:49:28;98778.56;;;6.40;100.00
11830;BME280;5972;42.134;24.718;2023-01-27T09:52:10;98780.59;;;6.43;100.00
11830;BME280;5972;42.134;24.718;2023-01-27T09:54:55;98788.22;;;6.41;100.00
11830;BME280;5972;42.134;24.718;2023-01-27T09:57:31;98746.19;;;6.12;100.00
11830;BME280;5972;42.134;24.718;2023-01-27T10:00:26;98792.44;;;6.42;100.00
11830;BME280;5972;42.134;24.718;2023-01-27T10:03:19;98785.38;;;6.37;100.00
11830;BME280;5972;42.134;24.718;2023-01-27T10:08:59;98784.28;;;6.38;100.00
11830;BME280;5972;42.134;24.718;2023-01-27T10:11:36;98765.16;;;6.40;100.00
11830;BME280;5972;42.134;24.718;2023-01-27T10:14:20;98748.88;;;6.36;100.00
11830;BME280;5972;42.134;24.718;2023-01-27T10:17:11;98783.31;;;6.67;100.00
11830;BME280;5972;42.134;24.718;2023-01-27T10:19:52;98755.63;;;6.54;100.00
11830;BME280;5972;42.134;24.718;2023-01-27T10:22:32;98773.56;;;6.62;100.00
11830;BME280;5972;42.134;24.718;2023-01-27T10:25:17;98743.09;;;6.46;100.00
11830;BME280;5972;42.134;24.718;2023-01-27T10:27:51;98730.88;;;6.49;100.00
11830;BME280;5972;42.134;24.718;2023-01-27T10:30:27;98761.13;;;6.70;100.00
11830;BME280;5972;42.134;24.718;2023-01-27T10:33:06;98747.69;;;6.70;100.00
11830;BME280;5972;42.134;24.718;2023-01-27T10:35:44;98739.19;;;6.68;100.00
11830;BME280;5972;42.134;24.718;2023-01-27T10:38:25;98725.19;;;6.62;100.00
11830;BME280;5972;42.134;24.718;2023-01-27T10:41:00;98738.25;;;6.76;100.00
11830;BME280;5972;42.134;24.718;2023-01-27T10:43:38;98733.34;;;6.66;100.00
11830;BME280;5972;42.134;24.718;2023-01-27T10:46:15;98726.31;;;6.74;100.00
11830;BME280;5972;42.134;24.718;2023-01-27T10:48:49;98729.66;;;6.83;100.00
11830;BME280;5972;42.134;24.718;2023-01-27T10:51:19;98719.66;;;6.83;100.00
11830;BME280;5972;42.134;24.718;2023-01-27T10:53:54;98719.91;;;6.90;100.00
11830;BME280;5972;42.134;24.718;2023-01-27T10:56:28;98717.53;;;7.01;100.00
11830;BME280;5972;42.134;24.718;2023-01-27T10:59:02;98712.22;;;7.17;100.00
11830;BME280;5972;42.134;24.718;2023-01-27T11:01:37;98713.88;;;7.21;100.00
11830;BME280;5972;42.134;24.718;2023-01-27T11:04:13;98708.72;;;7.28;100.00
11830;BME280;5972;42.134;24.718;2023-01-27T11:06:43;98710.75;;;7.47;100.00
11830;BME280;5972;42.134;24.718;2023-01-27T11:09:18;98689.47;;;7.42;100.00
11830;BME280;5972;42.134;24.718;2023-01-27T11:11:50;98690.94;;;7.67;100.00
11830;BME280;5972;42.134;24.718;2023-01-27T11:14:24;98690.72;;;7.88;100.00
11830;BME280;5972;42.134;24.718;2023-01-27T11:16:52;98687.66;;;7.74;100.00
11830;BME280;5972;42.134;24.718;2023-01-27T11:19:41;98692.47;;;8.12;100.00
11830;BME280;5972;42.134;24.718;2023-01-27T11:22:20;98691.25;;;8.25;100.00
11830;BME280;5972;42.134;24.718;2023-01-27T11:24:52;98699.00;;;8.42;100.00
11830;BME280;5972;42.134;24.718;2023-01-27T11:27:33;98704.41;;;8.42;100.00
11830;BME280;5972;42.134;24.718;2023-01-27T11:30:08;98705.91;;;8.40;100.00
11830;BME280;5972;42.134;24.718;2023-01-27T11:32:46;98711.06;;;8.17;100.00
11830;BME280;5972;42.134;24.718;2023-01-27T11:35:17;98704.72;;;8.09;100.00
11830;BME280;5972;42.134;24.718;2023-01-27T11:37:46;98720.28;;;8.16;100.00
11830;BME280;5972;42.134;24.718;2023-01-27T11:40:16;98686.38;;;7.83;100.00
11830;BME280;5972;42.134;24.718;2023-01-27T11:42:48;98702.28;;;7.88;100.00
11830;BME280;5972;42.134;24.718;2023-01-27T11:46:26;98668.16;;;7.49;100.00
11830;BME280;5972;42.134;24.718;2023-01-27T11:48:22;98713.16;;;7.64;100.00
11830;BME280;5972;42.134;24.718;2023-01-27T11:50:57;98641.53;;;7.32;100.00
11830;BME280;5972;42.134;24.718;2023-01-27T11:53:29;98649.19;;;7.30;100.00
11830;BME280;5972;42.134;24.718;2023-01-27T11:56:07;98684.53;;;7.44;100.00
11830;BME280;5972;42.134;24.718;2023-01-27T11:58:44;98512.59;;;6.40;100.00
11830;BME280;5972;42.134;24.718;2023-01-27T12:01:22;98610.97;;;6.96;100.00
11830;BME280;5972;42.134;24.718;2023-01-27T12:03:57;98682.72;;;7.48;100.00
11830;BME280;5972;42.134;24.718;2023-01-27T12:06:42;98684.44;;;7.40;100.00
11830;BME280;5972;42.134;24.718;2023-01-27T12:09:29;98633.03;;;7.02;100.00
11830;BME280;5972;42.134;24.718;2023-01-27T12:12:19;98655.22;;;7.27;100.00
11830;BME280;5972;42.134;24.718;2023-01-27T12:14:48;98579.22;;;6.74;100.00
11830;BME280;5972;42.134;24.718;2023-01-27T12:17:28;98636.41;;;7.27;100.00
11830;BME280;5972;42.134;24.718;2023-01-27T12:19:58;98636.84;;;7.29;100.00
11830;BME280;5972;42.134;24.718;2023-01-27T12:22:31;98661.25;;;7.36;100.00
11830;BME280;5972;42.134;24.718;2023-01-27T12:25:04;98668.94;;;7.49;100.00
11830;BME280;5972;42.134;24.718;2023-01-27T12:27:38;98669.72;;;7.50;100.00
11830;BME280;5972;42.134;24.718;2023-01-27T12:30:17;98609.66;;;7.18;100.00
11830;BME280;5972;42.134;24.718;2023-01-27T12:32:55;98622.97;;;7.42;100.00
11830;BME280;5972;42.134;24.718;2023-01-27T12:35:28;98635.72;;;7.73;100.00
11830;BME280;5972;42.134;24.718;2023-01-27T12:38:10;98556.66;;;7.34;100.00
11830;BME280;5972;42.134;24.718;2023-01-27T12:40:59;98607.81;;;7.81;100.00
11830;BME280;5972;42.134;24.718;2023-01-27T12:43:54;98519.41;;;7.21;100.00
11830;BME280;5972;42.134;24.718;2023-01-27T12:46:41;98530.16;;;7.36;100.00
11830;BME280;5972;42.134;24.718;2023-01-27T12:49:31;98507.78;;;7.32;100.00
11830;BME280;5972;42.134;24.718;2023-01-27T12:52:24;98670.00;;;8.36;100.00
11830;BME280;5972;42.134;24.718;2023-01-27T12:55:01;98608.59;;;7.66;100.00
11830;BME280;5972;42.134;24.718;2023-01-27T12:58:03;98622.25;;;7.73;100.00
11830;BME280;5972;42.134;24.718;2023-01-27T13:00:36;98614.00;;;7.66;100.00
11830;BME280;5972;42.134;24.718;2023-01-27T13:03:14;98507.34;;;6.87;100.00
11830;BME280;5972;42.134;24.718;2023-01-27T13:05:43;98591.63;;;7.19;100.00
11830;BME280;5972;42.134;24.718;2023-01-27T13:08:32;98673.22;;;7.66;100.00
11830;BME280;5972;42.134;24.718;2023-01-27T13:11:07;98544.50;;;6.97;100.00
11830;BME280;5972;42.134;24.718;2023-01-27T13:13:36;98591.63;;;7.34;100.00
11830;BME280;5972;42.134;24.718;2023-01-27T13:16:16;98610.22;;;7.39;100.00
11830;BME280;5972;42.134;24.718;2023-01-27T13:18:52;98463.75;;;6.10;100.00
11830;BME280;5972;42.134;24.718;2023-01-27T13:21:42;98540.59;;;6.66;100.00
11830;BME280;5972;42.134;24.718;2023-01-27T13:24:18;98571.25;;;7.05;100.00
11830;BME280;5972;42.134;24.718;2023-01-27T13:27:03;98638.09;;;7.47;100.00
11830;BME280;5972;42.134;24.718;2023-01-27T13:29:35;98668.00;;;7.58;100.00
11830;BME280;5972;42.134;24.718;2023-01-27T13:32:19;98540.44;;;6.75;100.00